Time;durP1;ratioP1;P1;durP2;ratioP2;P2;SDS_P1;SDS_P2;PMS_P1;PMS_P2;Temp;Humidity;BMP_temperature;BMP_pressure;BME280_temperature;BME280_humidity;BME280_pressure;Samples;Min_cycle;Max_cycle;Signal;HPM_P1;HPM_P2
2023/03/01 00:00:11;;;;;;;20.27;9.70;;;;;;;-3.64;100.00;146528.84;5051858;28;20471;-63
2023/03/01 00:02:37;;;;;;;22.97;10.30;;;;;;;-3.70;100.00;146514.81;5043781;28;20030;-63
2023/03/01 00:05:03;;;;;;;25.10;10.13;;;;;;;-3.75;100.00;146502.03;5051029;28;20362;-63
2023/03/01 00:07:28;;;;;;;24.63;10.17;;;;;;;-3.66;100.00;146525.03;5051590;28;20025;-63
2023/03/01 00:09:54;;;;;;;22.17;10.80;;;;;;;-3.65;100.00;146527.56;5052058;28;20267;-63
2023/03/01 00:12:20;;;;;;;24.63;10.97;;;;;;;-3.93;100.00;146457.28;5051486;28;20048;-62
2023/03/01 00:14:45;;;;;;;24.70;10.03;;;;;;;-4.00;100.00;146438.09;5051582;28;20040;-64
2023/03/01 00:17:11;;;;;;;22.90;11.37;;;;;;;-3.90;100.00;146463.66;5051468;28;20032;-66
2023/03/01 00:19:37;;;;;;;23.53;10.93;;;;;;;-3.84;100.00;146479.03;5050308;28;20552;-65
2023/03/01 00:22:02;;;;;;;23.43;11.50;;;;;;;-3.75;100.00;146502.03;5052008;28;20044;-64
2023/03/01 00:24:28;;;;;;;22.00;11.00;;;;;;;-3.68;100.00;146519.91;5051657;28;20365;-65
2023/03/01 00:26:55;;;;;;;25.67;11.27;;;;;;;-3.72;100.00;146509.72;5051650;28;20036;-65
2023/03/01 00:29:22;;;;;;;21.97;10.30;;;;;;;-3.83;100.00;146482.84;5051088;28;20064;-65
2023/03/01 00:31:47;;;;;;;26.97;11.63;;;;;;;-3.75;100.00;146500.78;5050467;28;20274;-65
2023/03/01 00:34:13;;;;;;;24.37;11.20;;;;;;;-3.95;100.00;146450.91;5051306;28;20267;-64
2023/03/01 00:36:38;;;;;;;26.87;11.73;;;;;;;-4.13;100.00;146407.44;5044408;28;20064;-63
2023/03/01 00:39:07;;;;;;;21.23;10.57;;;;;;;-4.26;100.00;146372.94;5037138;28;20432;-63
2023/03/01 00:41:34;;;;;;;20.90;9.73;;;;;;;-4.26;100.00;146374.22;5051433;28;20676;-63
2023/03/01 00:44:00;;;;;;;27.70;11.23;;;;;;;-4.35;100.00;146351.25;5050704;28;20674;-63
2023/03/01 00:46:26;;;;;;;24.87;11.37;;;;;;;-4.23;100.00;146381.91;5049661;28;20267;-63
2023/03/01 00:48:51;;;;;;;24.93;11.23;;;;;;;-4.30;100.00;146362.72;5050875;28;20024;-63
2023/03/01 00:51:20;;;;;;;24.53;11.23;;;;;;;-4.32;100.00;146358.91;5050949;28;20339;-65
2023/03/01 00:53:46;;;;;;;26.07;10.93;;;;;;;-4.35;100.00;146351.25;5049952;28;20116;-64
2023/03/01 00:56:14;;;;;;;25.37;11.23;;;;;;;-4.28;100.00;146369.09;5050293;28;20346;-64
2023/03/01 00:58:40;;;;;;;25.07;11.67;;;;;;;-4.31;100.00;146360.19;5049863;28;20037;-65
2023/03/01 01:01:19;;;;;;;28.37;11.50;;;;;;;-4.30;100.00;146364.00;5050499;28;20284;-64
2023/03/01 01:03:52;;;;;;;30.37;12.30;;;;;;;-4.20;100.00;146389.56;5050665;28;20036;-64
2023/03/01 01:06:20;;;;;;;27.40;11.67;;;;;;;-4.26;100.00;146374.22;5051123;28;20342;-64
2023/03/01 01:08:46;;;;;;;25.07;11.30;;;;;;;-4.29;100.00;146366.56;5050005;28;20267;-65
2023/03/01 01:11:12;;;;;;;29.20;11.63;;;;;;;-4.40;100.00;146337.16;5049905;28;20354;-64
2023/03/01 01:13:39;;;;;;;34.33;14.27;;;;;;;-4.43;100.00;146330.78;5052494;28;20040;-64
2023/03/01 01:16:04;;;;;;;38.43;15.47;;;;;;;-4.47;100.00;146320.59;5054170;28;20504;-64
2023/03/01 01:18:30;;;;;;;58.97;21.27;;;;;;;-4.36;100.00;146348.69;5054472;28;20255;-65
2023/03/01 01:20:55;;;;;;;54.63;20.33;;;;;;;-4.44;100.00;146328.25;5054792;28;20100;-64
2023/03/01 01:23:20;;;;;;;45.23;16.73;;;;;;;-4.35;100.00;146351.25;5054038;28;20060;-64
2023/03/01 01:25:46;;;;;;;42.50;16.70;;;;;;;-4.40;100.00;146338.44;5054109;28;20465;-65
2023/03/01 01:28:11;;;;;;;35.80;14.67;;;;;;;-4.36;100.00;146347.38;5042995;28;20029;-65
2023/03/01 01:30:37;;;;;;;30.47;13.77;;;;;;;-4.37;100.00;146344.81;5052747;28;20082;-65
2023/03/01 01:33:02;;;;;;;35.60;14.37;;;;;;;-4.34;100.00;146353.78;5051063;28;20113;-65
2023/03/01 01:35:28;;;;;;;39.73;15.83;;;;;;;-4.31;100.00;146361.44;5051916;28;20037;-65
2023/03/01 01:37:53;;;;;;;35.20;14.63;;;;;;;-4.35;100.00;146351.25;5052434;28;20098;-64
2023/03/01 01:40:19;;;;;;;39.70;14.70;;;;;;;-4.31;100.00;146361.44;5052993;28;20032;-64
2023/03/01 01:42:44;;;;;;;43.03;16.63;;;;;;;-4.22;100.00;146383.19;5052689;28;20452;-65
2023/03/01 01:45:29;;;;;;;42.07;15.73;;;;;;;-4.31;100.00;146360.19;5051004;28;20021;-65
2023/03/01 01:47:59;;;;;;;41.50;17.80;;;;;;;-4.42;100.00;146334.63;5045009;28;20033;-65
2023/03/01 01:50:25;;;;;;;46.73;17.23;;;;;;;-4.34;100.00;146353.78;5051798;28;20672;-64
2023/03/01 01:52:53;;;;;;;45.43;18.23;;;;;;;-4.47;100.00;146321.88;5053367;28;20303;-65
2023/03/01 01:55:23;;;;;;;36.73;14.90;;;;;;;-4.66;100.00;146272.03;5052178;28;20024;-64
2023/03/01 01:57:53;;;;;;;41.17;15.30;;;;;;;-4.69;100.00;146265.66;5052306;28;20344;-65
2023/03/01 02:00:22;;;;;;;40.13;15.87;;;;;;;-4.70;100.00;146263.09;5048322;28;20076;-63
2023/03/01 02:02:51;;;;;;;42.77;15.40;;;;;;;-4.68;100.00;146266.94;5051939;28;20394;-63
2023/03/01 02:05:26;;;;;;;37.10;14.77;;;;;;;-4.73;100.00;146256.69;5051106;28;20284;-63
2023/03/01 02:07:52;;;;;;;36.93;14.33;;;;;;;-4.93;100.00;146205.63;5035366;28;20290;-63
2023/03/01 02:10:19;;;;;;;39.43;15.47;;;;;;;-4.75;100.00;146251.56;5053739;28;20743;-62
2023/03/01 02:12:45;;;;;;;41.70;15.17;;;;;;;-4.60;100.00;146287.34;5046327;28;20276;-62
2023/03/01 02:15:11;;;;;;;36.70;15.10;;;;;;;-4.65;100.00;146275.84;5053038;28;20322;-62
2023/03/01 02:17:37;;;;;;;41.00;15.77;;;;;;;-4.73;100.00;146256.69;5053636;28;20303;-62
2023/03/01 02:20:24;;;;;;;38.50;15.93;;;;;;;-4.72;100.00;146258.00;5047280;28;20425;-62
2023/03/01 02:22:50;;;;;;;38.60;15.23;;;;;;;-4.76;100.00;146249.03;5051366;28;20643;-62
2023/03/01 02:25:18;;;;;;;36.17;14.63;;;;;;;-4.77;100.00;146246.47;5052270;28;20264;-63
2023/03/01 02:28:12;;;;;;;38.60;14.80;;;;;;;-4.63;100.00;146279.69;5053162;28;20033;-62
2023/03/01 02:31:41;;;;;;;37.50;14.27;;;;;;;-4.67;100.00;146269.47;5047809;28;20674;-63
2023/03/01 02:33:25;;;;;;;37.70;14.43;;;;;;;-4.48;100.00;146319.31;5044297;28;20284;-62
2023/03/01 02:35:52;;;;;;;36.27;14.27;;;;;;;-4.35;100.00;146351.25;5044058;28;20287;-62
2023/03/01 02:38:17;;;;;;;41.27;15.90;;;;;;;-4.23;100.00;146381.91;5047109;28;20284;-63
2023/03/01 02:40:44;;;;;;;43.50;15.77;;;;;;;-4.18;100.00;146394.66;5044843;28;20903;-63
2023/03/01 02:43:12;;;;;;;39.77;15.53;;;;;;;-4.22;100.00;146384.47;5045042;28;20099;-63
2023/03/01 02:45:37;;;;;;;39.63;15.20;;;;;;;-4.34;100.00;146353.78;5045179;28;20333;-62
2023/03/01 02:48:03;;;;;;;36.27;13.97;;;;;;;-4.53;100.00;146306.50;5046285;28;20596;-62
2023/03/01 02:50:28;;;;;;;36.27;13.90;;;;;;;-4.58;100.00;146292.47;5046049;28;20033;-63
2023/03/01 02:53:06;;;;;;;36.10;13.70;;;;;;;-4.73;100.00;146256.69;5045407;28;20040;-63
2023/03/01 02:55:31;;;;;;;34.37;14.33;;;;;;;-4.67;100.00;146269.47;5044776;28;20040;-62
2023/03/01 02:57:56;;;;;;;35.43;14.73;;;;;;;-4.60;100.00;146287.34;5044037;28;20282;-63
2023/03/01 03:00:31;;;;;;;33.00;13.47;;;;;;;-4.63;100.00;146279.69;5052501;28;20075;-63
2023/03/01 03:02:59;;;;;;;39.03;13.97;;;;;;;-4.64;100.00;146277.13;5051946;28;20091;-62
2023/03/01 03:05:28;;;;;;;36.17;13.63;;;;;;;-4.67;100.00;146270.75;5052001;28;20374;-63
2023/03/01 03:07:55;;;;;;;42.20;14.57;;;;;;;-4.79;100.00;146240.09;5052100;28;20298;-62
2023/03/01 03:10:20;;;;;;;40.50;14.83;;;;;;;-4.68;100.00;146266.94;5050993;28;20400;-63
2023/03/01 03:13:12;;;;;;;37.63;15.50;;;;;;;-4.58;100.00;146292.47;5051802;28;20275;-63
2023/03/01 03:15:38;;;;;;;43.17;15.43;;;;;;;-4.36;100.00;146348.69;5051750;28;20164;-63
2023/03/01 03:18:06;;;;;;;38.00;15.03;;;;;;;-4.44;100.00;146329.50;5052296;28;20025;-63
2023/03/01 03:20:32;;;;;;;38.37;15.30;;;;;;;-4.41;100.00;146335.91;5052233;28;20283;-63
2023/03/01 03:22:58;;;;;;;36.10;15.30;;;;;;;-4.49;100.00;146315.44;5052123;28;20822;-63
2023/03/01 03:25:24;;;;;;;43.67;16.00;;;;;;;-4.51;100.00;146310.34;5051971;28;20370;-63
2023/03/01 03:27:56;;;;;;;47.93;17.83;;;;;;;-4.46;100.00;146323.13;5051296;28;20032;-63
2023/03/01 03:30:24;;;;;;;41.20;16.53;;;;;;;-4.33;100.00;146356.34;5051496;28;20325;-63
2023/03/01 03:32:52;;;;;;;42.03;16.77;;;;;;;-4.32;100.00;146358.91;5052028;28;20262;-62
2023/03/01 03:35:24;;;;;;;42.47;17.07;;;;;;;-4.31;100.00;146361.44;5051918;28;20299;-63
2023/03/01 03:38:03;;;;;;;44.50;17.10;;;;;;;-4.37;100.00;146346.09;5052166;28;20255;-63
2023/03/01 03:40:37;;;;;;;42.90;16.40;;;;;;;-4.44;100.00;146328.25;5047261;28;20302;-62
2023/03/01 03:43:05;;;;;;;38.63;15.67;;;;;;;-4.41;100.00;146335.91;5042801;28;20287;-63
2023/03/01 03:45:32;;;;;;;36.43;15.90;;;;;;;-4.48;100.00;146318.03;5042415;28;20295;-63
2023/03/01 03:47:58;;;;;;;34.40;15.50;;;;;;;-4.64;100.00;146277.13;5043658;28;22322;-63
2023/03/01 03:50:24;;;;;;;40.33;15.53;;;;;;;-4.72;100.00;146259.28;5044160;28;20401;-62
2023/03/01 03:52:49;;;;;;;41.40;15.90;;;;;;;-4.87;100.00;146220.94;5044338;28;20028;-63
2023/03/01 03:55:19;;;;;;;41.27;15.67;;;;;;;-4.79;100.00;146241.38;5045370;28;20059;-63
2023/03/01 03:57:51;;;;;;;39.67;15.90;;;;;;;-4.72;100.00;146259.28;5043336;28;20028;-63
2023/03/01 04:00:18;;;;;;;47.50;15.80;;;;;;;-4.62;100.00;146282.22;5044663;28;20760;-63
2023/03/01 04:02:44;;;;;;;47.50;17.10;;;;;;;-4.68;100.00;146266.94;5045155;28;20302;-63
2023/03/01 04:05:12;;;;;;;37.37;15.17;;;;;;;-4.69;100.00;146265.66;5043586;28;20310;-63
2023/03/01 04:07:37;;;;;;;36.23;15.60;;;;;;;-4.81;100.00;146236.28;5043549;28;20283;-63
2023/03/01 04:10:09;;;;;;;34.90;15.13;;;;;;;-4.83;100.00;146231.19;5045113;28;20369;-63
2023/03/01 04:12:34;;;;;;;36.13;15.13;;;;;;;-4.79;100.00;146241.38;5043499;28;20064;-63
2023/03/01 04:15:01;;;;;;;44.73;18.37;;;;;;;-4.81;100.00;146236.28;5042689;28;20702;-63
2023/03/01 04:17:27;;;;;;;40.93;16.23;;;;;;;-4.58;100.00;146292.47;5042864;28;20021;-63
2023/03/01 04:19:52;;;;;;;41.13;16.07;;;;;;;-4.58;100.00;146292.47;5043301;28;20420;-63
2023/03/01 04:22:18;;;;;;;41.40;16.77;;;;;;;-4.66;100.00;146272.03;5042863;28;20291;-62
2023/03/01 04:24:44;;;;;;;40.63;17.33;;;;;;;-4.66;100.00;146272.03;5044726;28;20033;-62
2023/03/01 04:27:10;;;;;;;46.97;18.07;;;;;;;-4.63;100.00;146279.69;5043070;28;20142;-63
2023/03/01 04:29:36;;;;;;;46.23;18.30;;;;;;;-4.48;100.00;146318.03;5043386;28;20291;-63
2023/03/01 04:32:02;;;;;;;42.00;18.33;;;;;;;-4.45;100.00;146325.69;5042631;28;20287;-63
2023/03/01 04:34:28;;;;;;;51.13;20.13;;;;;;;-4.48;100.00;146318.03;5042451;28;20051;-63
2023/03/01 04:36:53;;;;;;;50.50;19.50;;;;;;;-4.49;100.00;146315.44;5043480;28;20271;-62
2023/03/01 04:39:19;;;;;;;40.37;16.67;;;;;;;-4.68;100.00;146266.94;5043144;28;20029;-63
2023/03/01 04:41:44;;;;;;;43.70;17.10;;;;;;;-4.74;100.00;146254.13;5044153;28;20106;-63
2023/03/01 04:44:10;;;;;;;40.47;16.73;;;;;;;-4.81;100.00;146236.28;5043343;28;20053;-63
2023/03/01 04:46:36;;;;;;;42.70;16.93;;;;;;;-4.66;100.00;146272.03;5042830;28;20063;-63
2023/03/01 04:49:02;;;;;;;40.57;16.17;;;;;;;-4.87;100.00;146220.94;5045326;28;20025;-63
2023/03/01 04:51:28;;;;;;;44.33;16.97;;;;;;;-4.91;100.00;146210.72;5047402;28;20311;-63
2023/03/01 04:53:53;;;;;;;40.20;16.10;;;;;;;-4.87;100.00;146220.94;5047147;28;20832;-64
2023/03/01 04:56:19;;;;;;;49.00;17.77;;;;;;;-4.75;100.00;146251.56;5048174;28;20033;-63
2023/03/01 04:58:45;;;;;;;48.00;17.67;;;;;;;-4.78;100.00;146243.94;5046502;28;20040;-63
2023/03/01 05:01:17;;;;;;;47.70;18.07;;;;;;;-4.76;100.00;146249.03;5053961;28;20508;-63
2023/03/01 05:03:44;;;;;;;43.28;18.25;;;;;;;-4.69;100.00;146265.66;5054792;28;20275;-63
2023/03/01 05:06:11;;;;;;;48.50;19.10;;;;;;;-4.59;100.00;146289.94;5054405;28;20044;-63
2023/03/01 05:08:37;;;;;;;49.80;19.13;;;;;;;-4.50;100.00;146314.16;5054108;28;20299;-63
2023/03/01 05:11:03;;;;;;;50.73;18.07;;;;;;;-4.56;100.00;146297.59;5054008;28;20653;-63
2023/03/01 05:13:29;;;;;;;50.77;19.77;;;;;;;-4.64;100.00;146278.41;5054039;28;20279;-63
2023/03/01 05:15:59;;;;;;;49.90;21.07;;;;;;;-4.69;100.00;146264.38;5053919;28;20326;-62
2023/03/01 05:18:27;;;;;;;53.42;21.05;;;;;;;-4.50;100.00;146312.88;5054274;28;20460;-63
2023/03/01 05:20:55;;;;;;;44.87;16.87;;;;;;;-4.56;100.00;146298.84;5050534;28;20033;-62
2023/03/01 05:23:22;;;;;;;47.97;18.77;;;;;;;-4.60;100.00;146287.34;5054647;28;20814;-63
2023/03/01 05:25:49;;;;;;;41.40;18.47;;;;;;;-4.68;100.00;146266.94;5053630;28;20306;-63
2023/03/01 05:28:15;;;;;;;46.20;17.33;;;;;;;-4.64;100.00;146277.13;5053907;28;20275;-63
2023/03/01 05:30:42;;;;;;;43.50;18.23;;;;;;;-4.72;100.00;146259.28;5046929;28;20333;-63
2023/03/01 05:33:13;;;;;;;42.60;18.57;;;;;;;-4.65;100.00;146274.59;5047981;28;20319;-63
2023/03/01 05:35:43;;;;;;;29.90;13.75;;;;;;;-4.63;100.00;146279.69;5045912;28;20690;-64
2023/03/01 05:38:12;;;;;;;42.70;17.90;;;;;;;-4.73;100.00;146256.69;5045932;28;20119;-64
2023/03/01 05:40:39;;;;;;;41.50;17.77;;;;;;;-4.70;100.00;146263.09;5043742;28;20306;-63
2023/03/01 05:43:05;;;;;;;49.13;19.23;;;;;;;-4.68;100.00;146266.94;5048236;28;20279;-63
2023/03/01 05:45:32;;;;;;;42.83;18.17;;;;;;;-4.88;100.00;146217.09;5045451;28;20286;-62
2023/03/01 05:47:58;;;;;;;41.23;17.53;;;;;;;-4.84;100.00;146228.63;5047265;28;20025;-63
2023/03/01 05:50:26;;;;;;;46.43;19.50;;;;;;;-4.80;100.00;146238.81;5043969;28;20284;-63
2023/03/01 05:53:05;;;;;;;43.73;19.03;;;;;;;-4.80;100.00;146238.81;5045882;28;20771;-63
2023/03/01 05:55:31;;;;;;;46.63;19.03;;;;;;;-4.75;100.00;146250.31;5044680;28;20675;-63
2023/03/01 05:58:04;;;;;;;54.53;22.17;;;;;;;-4.66;100.00;146272.03;5046372;28;20290;-63
2023/03/01 06:00:30;;;;;;;48.53;21.63;;;;;;;-4.53;100.00;146306.50;5043955;28;20279;-63
2023/03/01 06:02:57;;;;;;;50.97;21.43;;;;;;;-4.57;100.00;146296.31;5046609;28;20869;-62
2023/03/01 06:05:22;;;;;;;53.03;19.77;;;;;;;-4.70;100.00;146263.09;5047129;28;20329;-64
2023/03/01 06:07:49;;;;;;;54.87;21.77;;;;;;;-4.47;100.00;146321.88;5045264;28;20842;-64
2023/03/01 06:10:15;;;;;;;55.70;21.83;;;;;;;-4.44;100.00;146328.25;5046143;28;20502;-63
2023/03/01 06:12:43;;;;;;;60.60;22.57;;;;;;;-4.52;100.00;146307.78;5045087;28;20276;-62
2023/03/01 06:15:10;;;;;;;50.87;21.20;;;;;;;-4.70;100.00;146261.84;5045136;28;20271;-63
2023/03/01 06:17:37;;;;;;;52.23;20.63;;;;;;;-4.77;100.00;146245.19;5049894;28;20707;-62
2023/03/01 06:20:11;;;;;;;56.07;21.77;;;;;;;-4.72;100.00;146258.00;5046203;28;20311;-63
2023/03/01 06:22:36;;;;;;;50.93;20.00;;;;;;;-4.67;100.00;146269.47;5045780;28;20284;-63
2023/03/01 06:25:02;;;;;;;43.20;20.80;;;;;;;-4.62;100.00;146282.22;5048312;28;20298;-63
2023/03/01 06:27:28;;;;;;;43.63;20.33;;;;;;;-4.52;100.00;146307.78;5052654;28;20027;-63
2023/03/01 06:29:53;;;;;;;48.07;21.93;;;;;;;-4.43;100.00;146330.78;5052808;28;20025;-63
2023/03/01 06:32:19;;;;;;;49.90;21.87;;;;;;;-4.35;100.00;146351.25;5052112;28;20017;-63
2023/03/01 06:34:44;;;;;;;48.43;22.03;;;;;;;-4.24;100.00;146379.34;5052402;28;20024;-63
2023/03/01 06:37:10;;;;;;;49.27;23.03;;;;;;;-4.18;100.00;146394.66;5053196;28;20028;-63
2023/03/01 06:39:35;;;;;;;53.17;23.23;;;;;;;-4.03;100.00;146430.44;5053235;28;20031;-63
2023/03/01 06:42:01;;;;;;;53.83;24.03;;;;;;;-3.94;100.00;146454.72;5052735;28;20028;-64
2023/03/01 06:44:26;;;;;;;51.23;23.47;;;;;;;-3.84;100.00;146479.03;5052884;28;20426;-64
2023/03/01 06:46:52;;;;;;;50.43;22.87;;;;;;;-3.73;100.00;146507.16;5056747;28;20033;-63
2023/03/01 06:49:18;;;;;;;50.77;22.70;;;;;;;-3.52;100.00;146559.53;5046034;28;20021;-63
2023/03/01 06:51:44;;;;;;;44.77;21.27;;;;;;;-2.76;100.00;146750.16;5046660;28;20049;-63
2023/03/01 06:54:10;;;;;;;37.00;18.00;;;;;;;-2.13;100.00;146910.16;5043776;28;20435;-63
2023/03/01 06:56:35;;;;;;;31.23;15.77;;;;;;;-1.31;100.00;147116.38;5046899;28;20267;-63
2023/03/01 06:59:02;;;;;;;29.47;13.30;;;;;;;-0.28;100.00;147375.31;5046821;28;20021;-64
2023/03/01 07:01:28;;;;;;;23.47;11.23;;;;;;;0.14;100.00;147481.81;5051498;28;20029;-64
2023/03/01 07:03:54;;;;;;;22.00;9.57;;;;;;;0.08;100.00;147465.13;5050747;28;20033;-63
2023/03/01 07:06:19;;;;;;;23.33;7.97;;;;;;;0.66;100.00;147612.72;5051593;28;20052;-63
2023/03/01 07:08:44;;;;;;;15.17;6.97;;;;;;;1.56;100.00;147840.03;5051698;28;20055;-63
2023/03/01 07:11:10;;;;;;;15.87;6.90;;;;;;;1.95;100.00;147939.00;5052036;28;20025;-63
2023/03/01 07:13:35;;;;;;;14.83;7.17;;;;;;;2.46;100.00;148066.28;5052106;28;20029;-63
2023/03/01 07:16:01;;;;;;;15.83;7.17;;;;;;;2.83;100.00;148160.19;5051479;28;20025;-63
2023/03/01 07:18:26;;;;;;;14.23;6.90;;;;;;;2.34;100.00;148038.00;5052947;28;20050;-63
2023/03/01 07:20:51;;;;;;;15.13;7.43;;;;;;;1.89;100.00;147922.28;5051739;28;20052;-63
2023/03/01 07:23:17;;;;;;;15.30;6.87;;;;;;;2.70;100.00;148128.00;5051756;28;20021;-64
2023/03/01 07:25:42;;;;;;;11.23;5.83;;;;;;;2.16;100.00;147991.69;5050579;28;20040;-64
2023/03/01 07:28:08;;;;;;;10.17;5.07;;;;;;;2.67;100.00;148120.31;5052227;28;20536;-64
2023/03/01 07:30:33;;;;;;;10.07;4.93;;;;;;;3.10;100.00;148228.34;5050089;28;20104;-64
2023/03/01 07:32:59;;;;;;;8.63;4.77;;;;;;;3.10;100.00;148229.63;5051095;28;20108;-64
2023/03/01 07:35:27;;;;;;;8.97;4.60;;;;;;;3.84;100.00;148416.25;5050809;28;20037;-64
2023/03/01 07:37:53;;;;;;;11.70;4.97;;;;;;;4.02;100.00;148462.66;5049289;28;20116;-64
2023/03/01 07:40:19;;;;;;;8.13;4.70;;;;;;;3.87;100.00;148423.97;5051865;28;20120;-64
2023/03/01 07:42:44;;;;;;;9.07;5.00;;;;;;;4.43;100.00;148565.66;5050394;28;20033;-64
2023/03/01 07:45:15;;;;;;;9.53;4.70;;;;;;;5.29;100.00;148784.75;5050240;28;20028;-64
2023/03/01 07:47:41;;;;;;;8.30;4.72;;;;;;;4.98;100.00;148704.84;5051362;28;20037;-64
2023/03/01 07:50:07;;;;;;;8.07;4.60;;;;;;;4.87;100.00;148676.50;5052156;28;20021;-64
2023/03/01 07:52:32;;;;;;;9.33;4.80;;;;;;;5.14;100.00;148746.09;5051149;28;20020;-64
2023/03/01 07:54:58;;;;;;;7.63;4.60;;;;;;;6.58;100.00;149109.91;5051643;28;20507;-64
2023/03/01 07:57:23;;;;;;;10.27;4.60;;;;;;;6.08;100.00;148984.72;5051765;28;20048;-64
2023/03/01 07:59:49;;;;;;;11.00;4.80;;;;;;;6.50;100.00;149089.25;5050501;28;20036;-64
2023/03/01 08:02:15;;;;;;;7.95;4.78;;;;;;;7.67;100.00;149387.56;5050168;28;20037;-64
2023/03/01 08:04:41;;;;;;;10.57;4.90;;;;;;;7.44;100.00;149329.41;5036405;28;20029;-64
2023/03/01 08:07:06;;;;;;;12.75;5.18;;;;;;;8.34;100.00;149556.81;5037458;28;20021;-64
2023/03/01 08:09:34;;;;;;;10.43;4.78;;;;;;;8.22;100.00;149528.38;5051132;28;20534;-64
2023/03/01 08:12:00;;;;;;;10.55;5.18;;;;;;;9.34;100.00;149812.97;5051051;28;20017;-64
2023/03/01 08:14:25;;;;;;;12.70;5.25;;;;;;;10.24;100.00;150042.13;5046390;28;20021;-64
2023/03/01 08:16:51;;;;;;;9.35;5.53;;;;;;;9.86;100.00;149944.97;5049961;28;20397;-64
2023/03/01 08:19:17;;;;;;;10.20;5.40;;;;;;;10.03;100.00;149987.66;5050474;28;20487;-65
2023/03/01 08:21:42;;;;;;;10.10;5.32;;;;;;;9.50;100.00;149851.78;5051207;28;20028;-63
2023/03/01 08:24:10;;;;;;;10.93;5.57;;;;;;;9.84;100.00;149939.81;5053910;28;20092;-64
2023/03/01 08:26:35;;;;;;;12.98;4.55;;;;;;;10.09;100.00;150001.94;5054783;28;20036;-64
2023/03/01 08:29:01;;;;;;;9.40;4.57;;;;;;;9.79;100.00;137064.94;5054221;28;20032;-64
2023/03/01 08:31:28;;;;;;;8.98;4.88;;;;;;;10.25;100.00;124014.34;5053865;28;20519;-64
2023/03/01 08:33:56;;;;;;;11.88;4.90;;;;;;;10.14;100.00;85149.38;5055479;28;20055;-64
2023/03/01 08:36:36;;;;;;;9.20;4.75;;;;;;;9.98;100.00;31292.81;5054835;28;20048;-64
2023/03/01 08:39:04;;;;;;;13.20;4.65;;;;;;;10.14;100.00;-13943.28;5052531;28;20048;-64
2023/03/01 08:41:29;;;;;;;9.50;4.60;;;;;;;9.89;100.00;-19424.72;5052997;28;20060;-63
2023/03/01 08:43:58;;;;;;;10.80;4.50;;;;;;;9.09;100.00;-19403.91;5051296;28;20052;-63
2023/03/01 08:46:28;;;;;;;7.13;4.30;;;;;;;8.93;100.00;-19399.69;5054345;28;20031;-63
2023/03/01 08:48:54;;;;;;;8.77;4.53;;;;;;;8.82;100.00;-19396.91;5053809;28;20029;-63
2023/03/01 08:51:20;;;;;;;7.93;4.40;;;;;;;8.99;100.00;-19401.28;5053730;28;21655;-63
2023/03/01 08:53:46;;;;;;;9.17;4.50;;;;;;;9.23;100.00;-19407.47;5054482;28;20037;-63
2023/03/01 08:56:12;;;;;;;7.70;4.13;;;;;;;9.16;100.00;-19405.63;5050101;28;20095;-63
2023/03/01 08:58:39;;;;;;;9.07;4.40;;;;;;;9.14;100.00;-19405.22;5054322;28;20104;-63
2023/03/01 09:01:12;;;;;;;8.17;4.43;;;;;;;9.37;100.00;-19411.28;5054033;28;20640;-64
2023/03/01 09:03:37;;;;;;;7.63;4.20;;;;;;;9.69;100.00;-19419.44;5054469;28;20040;-63
2023/03/01 09:06:05;;;;;;;9.90;4.40;;;;;;;7.85;100.00;-19371.72;5054408;28;20028;-64
2023/03/01 09:08:33;;;;;;;8.10;4.50;;;;;;;6.52;100.00;-19337.09;5054618;28;20528;-63
2023/03/01 09:11:02;;;;;;;12.50;5.27;;;;;;;5.48;100.00;-19310.13;5054889;28;20100;-64
2023/03/01 09:13:30;;;;;;;8.77;5.13;;;;;;;4.96;100.00;-19296.63;5052991;28;20025;-64
2023/03/01 09:15:56;;;;;;;10.23;4.90;;;;;;;4.69;100.00;-19289.59;5053481;28;20017;-64
2023/03/01 09:18:21;;;;;;;8.90;4.80;;;;;;;4.40;100.00;-19282.06;5052907;28;20025;-64
2023/03/01 09:20:47;;;;;;;10.57;5.07;;;;;;;4.41;100.00;-19282.31;5034943;28;20028;-64
2023/03/01 09:23:12;;;;;;;11.83;4.83;;;;;;;4.28;100.00;-19279.00;5050054;28;20060;-64
2023/03/01 09:25:37;;;;;;;8.73;4.60;;;;;;;4.23;100.00;-19277.56;5053894;28;20366;-64
2023/03/01 09:28:03;;;;;;;11.00;4.87;;;;;;;4.21;100.00;-19277.03;5054242;28;20025;-63
2023/03/01 09:30:29;;;;;;;8.23;4.43;;;;;;;4.23;100.00;-6790.47;5050921;28;20052;-64
2023/03/01 09:32:56;;;;;;;9.10;4.27;;;;;;;4.19;100.00;12518.00;5051463;28;20425;-63
2023/03/01 09:35:22;;;;;;;6.97;3.73;;;;;;;4.16;100.00;9936.22;5053616;28;20036;-64
2023/03/01 09:37:49;;;;;;;8.43;4.70;;;;;;;4.14;100.00;16391.47;5052966;28;20020;-63
2023/03/01 09:40:19;;;;;;;7.40;4.37;;;;;;;4.18;100.00;29667.19;5053802;28;20039;-63
2023/03/01 09:43:04;;;;;;;10.83;4.97;;;;;;;4.20;100.00;42344.78;5053604;28;20033;-63
2023/03/01 09:45:39;;;;;;;9.50;4.63;;;;;;;4.24;100.00;59652.88;5053150;28;20025;-62
2023/03/01 09:48:11;;;;;;;9.67;4.60;;;;;;;4.26;100.00;64241.09;5053783;28;20047;-63
2023/03/01 09:50:41;;;;;;;9.93;4.60;;;;;;;4.21;100.00;75069.69;5053839;28;20025;-63
2023/03/01 09:53:13;;;;;;;10.03;4.60;;;;;;;4.25;100.00;80669.75;5053504;28;20100;-63
2023/03/01 09:55:58;;;;;;;9.00;4.27;;;;;;;4.36;100.00;85959.50;5053641;28;20689;-62
2023/03/01 09:58:42;;;;;;;12.23;4.43;;;;;;;4.37;100.00;83652.22;5053932;28;20148;-63
2023/03/01 10:01:32;;;;;;;9.83;3.83;;;;;;;4.35;100.00;79036.41;5037492;28;20029;-62
2023/03/01 10:04:22;;;;;;;7.70;3.63;;;;;;;4.37;100.00;72788.59;5046348;28;20043;-63
2023/03/01 10:07:25;;;;;;;6.40;2.60;;;;;;;4.44;100.00;63605.75;5052636;28;20436;-63
2023/03/01 10:09:51;;;;;;;6.77;3.47;;;;;;;4.30;100.00;46263.19;5045890;28;20444;-63
2023/03/01 10:12:20;;;;;;;6.83;3.47;;;;;;;4.41;100.00;50514.88;5053038;28;20078;-64
2023/03/01 10:15:04;;;;;;;7.00;2.60;;;;;;;4.54;100.00;49873.38;5051914;28;20053;-64
2023/03/01 10:17:41;;;;;;;7.00;2.90;;;;;;;4.57;100.00;40744.13;5051856;28;20021;-64
2023/03/01 10:20:19;;;;;;;4.63;2.63;;;;;;;4.61;100.00;33588.88;5045979;28;20021;-64
2023/03/01 10:22:50;;;;;;;5.50;2.60;;;;;;;4.57;100.00;22554.53;5033985;28;20025;-65
2023/03/01 10:25:20;;;;;;;5.47;2.42;;;;;;;4.53;100.00;12526.81;5051570;28;20354;-64
2023/03/01 10:27:52;;;;;;;6.03;2.80;;;;;;;4.52;100.00;15757.38;5052061;28;20392;-63
2023/03/01 10:30:29;;;;;;;5.63;1.83;;;;;;;4.54;100.00;20286.59;5050503;28;20039;-63
2023/03/01 10:32:57;;;;;;;7.10;3.13;;;;;;;4.66;100.00;29044.03;5050406;28;20392;-64
2023/03/01 10:35:28;;;;;;;7.57;3.10;;;;;;;4.79;100.00;31974.44;5050460;28;20029;-64
2023/03/01 10:38:02;;;;;;;5.50;2.83;;;;;;;4.85;100.00;27430.88;5050893;28;20305;-63
2023/03/01 10:40:27;;;;;;;7.17;3.60;;;;;;;4.82;100.00;21592.81;5052633;28;20029;-64
2023/03/01 10:42:53;;;;;;;7.37;3.43;;;;;;;4.82;100.00;19002.09;5052132;28;20025;-64
2023/03/01 10:45:37;;;;;;;7.83;3.47;;;;;;;4.82;100.00;19002.09;5049805;28;20021;-64
2023/03/01 10:48:24;;;;;;;4.80;2.47;;;;;;;4.92;100.00;17711.00;5032912;28;20078;-62
2023/03/01 10:51:07;;;;;;;5.67;2.93;;;;;;;5.07;100.00;20307.03;5037214;28;20028;-63
2023/03/01 10:53:35;;;;;;;5.37;2.77;;;;;;;5.14;100.00;24849.06;5052036;28;20032;-63
2023/03/01 10:56:11;;;;;;;7.47;3.23;;;;;;;5.05;100.00;6727.66;5052685;28;20115;-63
2023/03/01 10:58:40;;;;;;;7.03;3.17;;;;;;;4.97;100.00;-10005.78;5052603;28;20029;-62
2023/03/01 11:01:23;;;;;;;8.90;3.43;;;;;;;4.97;100.00;-8721.78;5050836;28;20025;-62
2023/03/01 11:04:07;;;;;;;7.80;3.50;;;;;;;5.15;100.00;-2293.59;5051287;28;20037;-63
2023/03/01 11:06:37;;;;;;;6.90;3.40;;;;;;;5.29;100.00;-4545.72;5051622;28;20044;-63
2023/03/01 11:09:15;;;;;;;7.43;3.30;;;;;;;5.25;100.00;-13218.28;5050004;28;20456;-62
2023/03/01 11:11:40;;;;;;;7.37;2.73;;;;;;;5.27;100.00;-19304.69;5051431;28;20482;-63
2023/03/01 11:14:20;;;;;;;8.20;3.37;;;;;;;5.38;100.00;-19307.47;5049209;28;20120;-63